createdAt,value
2022-11-24T00:01:11.013Z,98261.47
2022-11-24T00:03:38.284Z,98268.53
2022-11-24T00:06:07.724Z,98269.31
2022-11-24T00:08:38.880Z,98284.25
2022-11-24T00:11:11.404Z,98274.03
2022-11-24T00:13:41.395Z,98273.25
2022-11-24T00:16:12.050Z,98278.31
2022-11-24T00:18:40.381Z,98286.56
2022-11-24T00:21:07.283Z,98298.72
2022-11-24T00:23:35.041Z,98325.47
2022-11-24T00:26:07.100Z,98315.66
2022-11-24T00:28:35.424Z,98290.56
2022-11-24T00:31:03.316Z,98292.16
2022-11-24T00:33:30.145Z,98306.28
2022-11-24T00:36:01.129Z,98319.28
2022-11-24T00:38:27.864Z,98330.69
2022-11-24T00:40:54.603Z,98319.69
2022-11-24T00:43:21.500Z,98334.59
2022-11-24T00:45:48.390Z,98313.78
2022-11-24T00:48:15.396Z,98327.53
2022-11-24T00:50:42.297Z,98340.53
2022-11-24T00:53:09.101Z,98340.13
2022-11-24T00:55:35.865Z,98339.34
2022-11-24T00:58:02.690Z,98339.34
2022-11-24T01:00:29.593Z,98360.53
2022-11-24T01:02:56.403Z,98357.78
2022-11-24T01:05:23.140Z,98365.25
2022-11-24T01:07:50.279Z,98364.47
2022-11-24T01:10:17.171Z,98362.06
2022-11-24T01:12:44.906Z,98380.09
2022-11-24T01:15:11.637Z,98362.84
2022-11-24T01:17:38.332Z,98385.59
2022-11-24T01:20:05.518Z,98410.75
2022-11-24T01:22:32.523Z,98412.72
2022-11-24T01:24:59.269Z,98411.53
2022-11-24T01:27:26.011Z,98409.56
2022-11-24T01:29:52.695Z,98416.22
2022-11-24T01:32:19.404Z,98409.13
2022-11-24T01:34:46.105Z,98428.34
2022-11-24T01:37:12.831Z,98430.69
2022-11-24T01:39:39.768Z,98426.34
2022-11-24T01:42:06.846Z,98429.47
2022-11-24T01:44:33.912Z,98436.50
2022-11-24T01:47:20.942Z,98431.81
2022-11-24T01:49:51.940Z,98433.34
2022-11-24T01:52:36.258Z,98436.47
2022-11-24T01:55:08.253Z,98447.81
2022-11-24T01:57:41.986Z,98441.91
2022-11-24T02:00:12.325Z,98449.31
2022-11-24T02:02:39.714Z,98459.88
2022-11-24T02:05:13.232Z,98444.13
2022-11-24T02:07:40.726Z,98446.47
2022-11-24T02:10:13.337Z,98448.81
2022-11-24T02:12:48.450Z,98448.38
2022-11-24T02:15:15.878Z,98458.94
2022-11-24T02:17:42.707Z,98460.53
2022-11-24T02:20:11.698Z,98459.34
2022-11-24T02:23:04.274Z,98466.81
2022-11-24T02:25:39.726Z,98475.41
2022-11-24T02:28:10.706Z,98474.59
2022-11-24T02:30:37.741Z,98470.63
2022-11-24T02:33:04.581Z,98468.66
2022-11-24T02:35:31.992Z,98465.91
2022-11-24T02:37:58.674Z,98460.00
2022-11-24T02:40:28.661Z,98470.56
2022-11-24T02:43:02.466Z,98467.81
2022-11-24T02:45:31.440Z,98479.22
2022-11-24T02:47:58.268Z,98483.97
2022-11-24T02:50:25.112Z,98468.66
2022-11-24T02:52:51.879Z,98478.91
2022-11-24T02:55:18.745Z,98480.84
2022-11-24T02:57:45.431Z,98477.75
2022-11-24T03:00:12.681Z,98470.66
2022-11-24T03:02:40.604Z,98467.13
2022-11-24T03:05:08.108Z,98468.72
2022-11-24T03:07:35.004Z,98462.88
2022-11-24T03:10:01.794Z,98460.53
2022-11-24T03:12:28.546Z,98461.31
2022-11-24T03:14:55.222Z,98462.09
2022-11-24T03:17:21.976Z,98467.59
2022-11-24T03:19:48.724Z,98462.09
2022-11-24T03:22:15.683Z,98458.19
2022-11-24T03:24:42.416Z,98469.97
2022-11-24T03:27:09.095Z,98472.34
2022-11-24T03:29:35.854Z,98480.25
2022-11-24T03:32:03.073Z,98479.53
2022-11-24T03:34:29.859Z,98483.91
2022-11-24T03:36:58.485Z,98475.38
2022-11-24T03:39:25.180Z,98489.13
2022-11-24T03:41:51.882Z,98475.78
2022-11-24T03:44:18.652Z,98483.63
2022-11-24T03:46:45.512Z,98482.06
2022-11-24T03:49:12.347Z,98482.06
2022-11-24T03:51:41.161Z,98494.63
2022-11-24T03:54:08.194Z,98501.31
2022-11-24T03:56:35.004Z,98489.13
2022-11-24T03:59:01.814Z,98498.56
2022-11-24T04:01:28.695Z,98496.97
2022-11-24T04:03:56.855Z,98495.38
2022-11-24T04:06:23.568Z,98517.78
2022-11-24T04:08:50.259Z,98520.16
2022-11-24T04:11:35.614Z,98504.09
2022-11-24T04:14:03.402Z,98495.91
2022-11-24T04:16:31.012Z,98501.06
2022-11-24T04:19:00.696Z,98495.25
2022-11-24T04:21:27.382Z,98488.63
2022-11-24T04:23:54.079Z,98487.53
2022-11-24T04:26:20.925Z,98491.06
2022-11-24T04:28:47.641Z,98489.09
2022-11-24T04:31:14.765Z,98484.81
2022-11-24T04:33:41.499Z,98484.44
2022-11-24T04:36:08.527Z,98498.22
2022-11-24T04:39:25.615Z,98477.47
2022-11-24T04:41:21.951Z,98491.22
2022-11-24T04:43:51.814Z,98478.63
2022-11-24T04:46:18.697Z,98481.38
2022-11-24T04:48:45.418Z,98467.63
2022-11-24T04:51:14.286Z,98458.25
2022-11-24T04:53:41.302Z,98456.78
2022-11-24T04:56:08.348Z,98451.38
2022-11-24T04:58:35.252Z,98453.78
2022-11-24T05:01:02.094Z,98458.53
2022-11-24T05:03:29.892Z,98452.28
2022-11-24T05:05:58.921Z,98449.13
2022-11-24T05:08:25.653Z,98429.53
2022-11-24T05:10:52.375Z,98428.03
2022-11-24T05:13:19.029Z,98412.38
2022-11-24T05:15:45.865Z,98415.13
2022-11-24T05:18:15.841Z,98409.28
2022-11-24T05:20:44.815Z,98394.72
2022-11-24T05:23:15.214Z,98398.63
2022-11-24T05:25:47.277Z,98404.97
2022-11-24T05:28:14.420Z,98406.94
2022-11-24T05:30:41.470Z,98400.66
2022-11-24T05:33:17.790Z,98408.13
2022-11-24T05:35:49.149Z,98401.41
2022-11-24T05:38:17.128Z,98398.25
2022-11-24T05:40:44.521Z,98395.06
2022-11-24T05:43:14.414Z,98389.56
2022-11-24T05:45:44.888Z,98386.78
2022-11-24T05:48:14.982Z,98371.81
2022-11-24T05:50:42.435Z,98364.72
2022-11-24T05:53:11.834Z,98365.06
2022-11-24T05:55:39.997Z,98343.81
2022-11-24T05:58:08.556Z,98343.81
2022-11-24T06:00:36.422Z,98358.00
2022-11-24T06:03:04.001Z,98354.84
2022-11-24T06:05:30.947Z,98363.16
2022-11-24T06:07:59.666Z,98358.84
2022-11-24T06:10:26.956Z,98359.66
2022-11-24T06:12:54.779Z,98355.72
2022-11-24T06:15:21.978Z,98337.25
2022-11-24T06:17:56.091Z,98329.81
2022-11-24T06:20:28.298Z,98321.22
2022-11-24T06:22:59.050Z,98327.13
2022-11-24T06:25:26.447Z,98327.97
2022-11-24T06:27:54.241Z,98327.56
2022-11-24T06:30:20.932Z,98323.25
2022-11-24T06:32:49.835Z,98315.84
2022-11-24T06:35:17.448Z,98306.81
2022-11-24T06:37:45.967Z,98315.47
2022-11-24T06:40:12.956Z,98318.63
2022-11-24T06:42:39.819Z,98321.78
2022-11-24T06:45:09.423Z,98322.59
2022-11-24T06:47:36.854Z,98319.50
2022-11-24T06:50:03.952Z,98320.72
2022-11-24T06:52:30.748Z,98306.59
2022-11-24T06:54:57.503Z,98298.75
2022-11-24T06:57:25.258Z,98285.41
2022-11-24T06:59:52.219Z,98271.25
2022-11-24T07:02:18.982Z,98261.44
2022-11-24T07:04:45.777Z,98244.50
2022-11-24T07:07:12.924Z,98244.53
2022-11-24T07:09:39.758Z,98238.25
2022-11-24T07:12:06.811Z,98235.88
2022-11-24T07:14:33.868Z,98233.53
2022-11-24T07:17:02.666Z,98226.06
2022-11-24T07:19:29.581Z,98224.50
2022-11-24T07:21:56.462Z,98220.19
2022-11-24T07:24:23.147Z,98221.78
2022-11-24T07:26:49.898Z,98201.31
2022-11-24T07:29:16.672Z,98198.16
2022-11-24T07:31:43.587Z,98199.34
2022-11-24T07:34:10.482Z,98186.38
2022-11-24T07:36:37.161Z,98170.22
2022-11-24T07:39:07.047Z,98164.31
2022-11-24T07:41:33.735Z,98160.38
2022-11-24T07:44:00.446Z,98152.13
2022-11-24T07:46:27.256Z,98147.03
2022-11-24T07:48:54.033Z,98135.22
2022-11-24T07:51:20.760Z,98127.34
2022-11-24T07:53:47.561Z,98125.75
2022-11-24T07:56:14.499Z,98121.44
2022-11-24T07:58:41.332Z,98119.84
2022-11-24T08:01:17.182Z,98107.63
2022-11-24T08:03:45.929Z,98093.47
2022-11-24T08:06:24.452Z,98091.88
2022-11-24T08:08:52.080Z,98086.38
2022-11-24T08:11:18.902Z,98081.66
2022-11-24T08:13:45.998Z,98069.81
2022-11-24T08:16:16.931Z,98066.25
2022-11-24T08:18:48.770Z,98060.34
2022-11-24T08:21:15.521Z,98045.38
2022-11-24T08:23:42.941Z,98041.81
2022-11-24T08:26:16.031Z,98048.50
2022-11-24T08:28:43.130Z,98029.97
2022-11-24T08:31:16.606Z,98024.88
2022-11-24T08:33:43.606Z,98022.50
2022-11-24T08:36:13.212Z,98019.31
2022-11-24T08:38:40.301Z,98009.88
2022-11-24T08:41:12.765Z,97991.72
2022-11-24T08:43:39.795Z,97988.19
2022-11-24T08:46:09.377Z,97996.44
2022-11-24T08:48:36.861Z,97999.53
2022-11-24T08:51:13.855Z,97985.75
2022-11-24T08:53:42.316Z,97989.31
2022-11-24T08:56:11.874Z,98000.38
2022-11-24T08:58:42.282Z,98015.75
2022-11-24T09:01:16.682Z,98017.75
2022-11-24T18:38:30.037Z,98127.03
2022-11-24T18:41:17.665Z,98127.44
2022-11-24T18:44:08.003Z,98135.69
2022-11-24T18:46:55.240Z,98126.66
2022-11-24T18:49:42.200Z,98134.56
2022-11-24T18:52:29.150Z,98133.38
2022-11-24T18:55:16.089Z,98116.84
2022-11-24T18:58:03.023Z,98119.22
2022-11-24T19:00:50.068Z,98118.84
2022-11-24T19:03:47.838Z,98116.09
2022-11-24T19:06:38.853Z,98107.84
2022-11-24T19:09:25.805Z,98112.94
2022-11-24T19:12:12.726Z,98108.59
2022-11-24T19:14:59.611Z,98110.19
2022-11-24T19:17:47.496Z,98107.44
2022-11-24T19:20:35.497Z,98105.84
2022-11-24T19:23:22.558Z,98103.91
2022-11-24T19:26:09.693Z,98103.91
2022-11-24T19:28:56.629Z,98110.56
2022-11-24T19:31:44.017Z,98109.75
2022-11-24T19:34:30.997Z,98112.91
2022-11-24T19:37:18.042Z,98116.03
2022-11-24T19:40:05.665Z,98120.72
2022-11-24T19:42:52.720Z,98123.88
2022-11-24T19:45:44.341Z,98124.66
2022-11-24T19:48:33.304Z,98141.91
2022-11-24T19:51:23.503Z,98139.94
2022-11-24T19:54:13.454Z,98145.41
2022-11-24T19:57:00.355Z,98160.72
2022-11-24T19:59:47.261Z,98175.63
2022-11-24T20:02:36.743Z,98183.09
2022-11-24T20:05:23.671Z,98192.09
2022-11-24T20:08:11.790Z,98197.59
2022-11-24T20:11:13.008Z,98200.03
2022-11-24T20:14:00.491Z,98213.41
2022-11-24T20:16:48.161Z,98214.22
2022-11-24T20:19:35.068Z,98209.09
2022-11-24T20:22:24.499Z,98225.19
2022-11-24T20:25:11.591Z,98247.19
2022-11-24T20:27:58.515Z,98258.53
2022-11-24T20:30:45.490Z,98258.16
2022-11-24T20:33:32.487Z,98277.41
2022-11-24T20:36:22.941Z,98291.16
2022-11-24T20:39:16.215Z,98295.84
2022-11-24T20:42:03.468Z,98301.00
2022-11-24T20:44:50.412Z,98311.59
2022-11-24T20:47:37.437Z,98310.06
2022-11-24T20:50:24.321Z,98324.63
2022-11-24T20:53:11.213Z,98333.28
2022-11-24T20:56:19.350Z,98354.94
2022-11-24T20:59:09.214Z,98348.28
2022-11-24T21:01:56.273Z,98373.81
2022-11-24T21:04:43.231Z,98371.81
2022-11-24T21:07:30.216Z,98392.56
2022-11-24T21:10:17.302Z,98401.97
2022-11-24T21:13:04.252Z,98418.81
2022-11-24T21:15:52.022Z,98422.72
2022-11-24T21:18:38.940Z,98433.66
2022-11-24T21:21:33.328Z,98449.75
2022-11-24T21:24:23.153Z,98455.25
2022-11-24T21:27:10.511Z,98470.16
2022-11-24T21:29:57.430Z,98481.91
2022-11-24T21:32:44.742Z,98495.25
2022-11-24T21:35:36.532Z,98499.13
2022-11-24T21:38:23.850Z,98514.75
2022-11-24T21:41:11.909Z,98519.84
2022-11-24T21:43:58.947Z,98540.63
2022-11-24T21:46:52.467Z,98544.50
2022-11-24T21:49:42.567Z,98563.31
2022-11-24T21:52:29.510Z,98568.41
2022-11-24T21:55:16.577Z,98577.03
2022-11-24T21:58:06.316Z,98588.38
2022-11-24T22:00:53.772Z,98598.56
2022-11-24T22:03:40.853Z,98609.94
2022-11-24T22:06:27.810Z,98631.13
2022-11-24T22:09:17.932Z,98643.31
2022-11-24T22:12:05.732Z,98652.72
2022-11-24T22:14:52.684Z,98655.84
2022-11-24T22:17:39.618Z,98676.22
2022-11-24T22:20:26.499Z,98673.47
2022-11-24T22:23:13.383Z,98689.56
2022-11-24T22:26:04.537Z,98689.91
2022-11-24T22:28:53.034Z,98702.84
2022-11-24T22:31:40.160Z,98712.69
2022-11-24T22:34:27.051Z,98713.06
2022-11-24T22:37:13.981Z,98733.06
2022-11-24T22:40:00.938Z,98749.16
2022-11-24T22:42:47.958Z,98751.09
2022-11-24T22:45:35.327Z,98762.47
2022-11-24T22:48:22.249Z,98774.97
2022-11-24T22:51:17.199Z,98777.31
2022-11-24T22:54:05.648Z,98795.75
2022-11-24T22:56:52.566Z,98810.63
2022-11-24T22:59:39.472Z,98813.38
2022-11-24T23:02:26.818Z,98815.69
2022-11-24T23:05:18.016Z,98828.28
2022-11-24T23:08:07.780Z,98836.09
2022-11-24T23:11:09.519Z,98848.25
2022-11-24T23:13:58.304Z,98847.06
2022-11-24T23:16:45.336Z,98863.94
2022-11-24T23:19:32.231Z,98872.19
2022-11-24T23:22:19.178Z,98890.63
2022-11-24T23:25:06.387Z,98896.47
2022-11-24T23:27:53.291Z,98901.19
2022-11-24T23:30:40.190Z,98913.78
2022-11-24T23:33:27.449Z,98912.97
2022-11-24T23:36:16.698Z,98924.75
2022-11-24T23:39:10.975Z,98936.91
2022-11-24T23:41:58.021Z,98945.13
2022-11-24T23:44:44.930Z,98939.22
2022-11-24T23:47:31.875Z,98957.28
2022-11-24T23:50:18.808Z,98972.19
2022-11-24T23:53:05.767Z,98972.19
2022-11-24T23:55:56.210Z,98980.44
2022-11-24T23:58:43.247Z,98989.81
